createdAt,value
2019-04-25T00:01:46.311Z,7.50
2019-04-25T00:04:33.668Z,7.50
2019-04-25T00:07:21.650Z,7.50
2019-04-25T00:10:09.502Z,7.50
2019-04-25T00:12:56.341Z,7.60
2019-04-25T00:15:44.960Z,7.60
2019-04-25T00:18:32.189Z,7.60
2019-04-25T00:21:23.846Z,7.70
2019-04-25T00:24:12.569Z,7.60
2019-04-25T00:26:59.681Z,7.60
2019-04-25T00:29:46.827Z,7.50
2019-04-25T00:32:34.035Z,7.40
2019-04-25T00:35:21.662Z,7.30
2019-04-25T00:38:09.144Z,7.30
2019-04-25T00:40:56.244Z,7.30
2019-04-25T00:43:44.078Z,7.30
2019-04-25T00:46:32.199Z,7.30
2019-04-25T00:49:19.129Z,7.30
2019-04-25T00:52:06.437Z,7.10
2019-04-25T00:54:53.646Z,7.00
2019-04-25T00:57:42.656Z,7.10
2019-04-25T01:00:47.052Z,7.10
2019-04-25T01:03:36.083Z,7.00
2019-04-25T01:06:23.542Z,6.90
2019-04-25T01:09:12.707Z,6.90
2019-04-25T01:11:59.701Z,6.80
2019-04-25T01:14:47.105Z,6.60
2019-04-25T01:17:34.082Z,6.70
2019-04-25T01:20:21.114Z,6.70
2019-04-25T01:23:08.530Z,6.60
2019-04-25T01:25:55.939Z,6.60
2019-04-25T01:28:43.944Z,6.70
2019-04-25T01:31:33.620Z,6.50
2019-04-25T01:34:23.798Z,6.50
2019-04-25T01:37:25.816Z,6.60
2019-04-25T01:40:31.077Z,6.60
2019-04-25T01:43:19.977Z,7.00
2019-04-25T01:46:07.774Z,7.40
2019-04-25T01:48:55.433Z,7.50
2019-04-25T01:51:43.677Z,7.60
2019-04-25T01:54:30.698Z,7.90
2019-04-25T01:57:17.962Z,8.10
2019-04-25T02:00:06.960Z,8.10
2019-04-25T02:02:54.895Z,8.20
2019-04-25T02:05:43.863Z,8.20
2019-04-25T02:08:31.187Z,8.20
2019-04-25T02:11:23.946Z,8.30
2019-04-25T02:14:11.233Z,8.30
2019-04-25T02:16:58.549Z,8.30
2019-04-25T02:19:45.459Z,8.40
2019-04-25T02:22:33.947Z,8.50
2019-04-25T02:25:22.979Z,8.50
2019-04-25T02:28:10.036Z,8.50
2019-04-25T02:31:00.590Z,8.50
2019-04-25T02:33:46.233Z,8.50
2019-04-25T02:36:34.684Z,8.50
2019-04-25T02:39:24.400Z,8.60
2019-04-25T02:42:11.326Z,8.60
2019-04-25T02:45:02.160Z,8.50
2019-04-25T02:47:55.044Z,8.50
2019-04-25T02:50:49.374Z,8.50
2019-04-25T02:53:38.128Z,8.40
2019-04-25T02:56:33.071Z,8.10
2019-04-25T02:59:15.034Z,8.00
2019-04-25T03:02:05.227Z,8.00
2019-04-25T03:04:51.652Z,7.90
2019-04-25T03:07:40.405Z,7.90
2019-04-25T03:10:27.453Z,7.90
2019-04-25T03:13:14.999Z,7.80
2019-04-25T03:16:08.566Z,7.80
2019-04-25T03:18:58.874Z,7.80
2019-04-25T03:21:47.883Z,7.70
2019-04-25T03:24:35.263Z,7.40
2019-04-25T03:27:22.142Z,7.40
2019-04-25T03:30:13.509Z,7.30
2019-04-25T03:32:58.218Z,7.30
2019-04-25T03:35:44.996Z,7.10
2019-04-25T03:38:32.215Z,7.10
2019-04-25T03:41:19.293Z,7.10
2019-04-25T03:44:06.488Z,7.10
2019-04-25T03:46:53.514Z,6.90
2019-04-25T03:49:40.469Z,6.90
2019-04-25T03:52:27.768Z,6.80
2019-04-25T03:55:14.845Z,7.00
2019-04-25T03:58:06.666Z,7.00
2019-04-25T04:00:51.274Z,7.30
2019-04-25T04:03:38.642Z,7.30
2019-04-25T04:06:25.760Z,7.20
2019-04-25T04:09:14.277Z,7.20
2019-04-25T04:12:03.330Z,7.10
2019-04-25T04:14:50.212Z,7.10
2019-04-25T04:17:45.038Z,7.00
2019-04-25T04:20:33.977Z,7.00
2019-04-25T04:23:26.020Z,7.10
2019-04-25T04:26:13.698Z,7.10
2019-04-25T04:29:03.050Z,6.90
2019-04-25T04:31:50.421Z,7.00
2019-04-25T04:34:37.351Z,6.90
2019-04-25T04:37:24.587Z,6.90
2019-04-25T04:40:11.645Z,7.00
2019-04-25T04:42:59.131Z,7.00
2019-04-25T04:45:46.216Z,6.70
2019-04-25T04:48:34.217Z,6.80
2019-04-25T04:51:23.310Z,7.00
2019-04-25T04:54:10.983Z,6.70
2019-04-25T04:56:58.001Z,6.80
2019-04-25T04:59:44.870Z,7.00
2019-04-25T05:02:36.512Z,7.20
2019-04-25T05:05:41.267Z,7.20
2019-04-25T05:08:29.942Z,7.10
2019-04-25T05:11:17.929Z,7.40
2019-04-25T05:14:04.977Z,7.40
2019-04-25T05:16:53.268Z,7.40
2019-04-25T05:19:40.409Z,7.10
2019-04-25T05:22:27.641Z,7.10
2019-04-25T05:25:16.338Z,7.20
2019-04-25T05:28:05.290Z,7.20
2019-04-25T05:31:00.124Z,7.20
2019-04-25T05:33:47.312Z,7.50
2019-04-25T05:36:37.325Z,7.40
2019-04-25T05:39:25.172Z,7.10
2019-04-25T05:42:17.240Z,7.10
2019-04-25T05:45:05.386Z,7.30
2019-04-25T05:47:54.005Z,7.50
2019-04-25T05:50:41.089Z,7.60
2019-04-25T05:53:28.318Z,7.50
2019-04-25T05:56:16.464Z,7.80
2019-04-25T05:59:05.516Z,8.00
2019-04-25T06:01:53.700Z,8.30
2019-04-25T06:04:40.869Z,8.40
2019-04-25T06:07:27.912Z,8.40
2019-04-25T06:10:22.212Z,8.70
2019-04-25T06:13:27.885Z,8.90
2019-04-25T06:16:20.234Z,8.90
2019-04-25T06:19:19.703Z,9.10
2019-04-25T06:22:08.423Z,9.30
2019-04-25T06:24:57.197Z,9.40
2019-04-25T06:27:56.450Z,9.50
2019-04-25T06:30:35.250Z,9.60
2019-04-25T06:33:24.571Z,9.80
2019-04-25T06:36:11.059Z,9.90
2019-04-25T06:38:58.512Z,10.20
2019-04-25T06:41:45.682Z,10.30
2019-04-25T06:44:36.837Z,10.50
2019-04-25T06:47:25.876Z,11.10
2019-04-25T06:50:15.598Z,11.80
2019-04-25T06:53:03.500Z,12.20
2019-04-25T06:55:50.770Z,12.20
2019-04-25T06:58:38.301Z,12.50
2019-04-25T07:01:26.677Z,12.90
2019-04-25T07:04:14.213Z,13.10
2019-04-25T07:07:10.575Z,13.30
2019-04-25T07:09:50.085Z,13.60
2019-04-25T07:12:37.452Z,13.70
2019-04-25T07:15:26.755Z,13.80
2019-04-25T07:18:13.945Z,14.10
2019-04-25T07:21:01.413Z,14.20
2019-04-25T07:23:48.573Z,14.30
2019-04-25T07:26:53.869Z,14.60
2019-04-25T07:29:51.540Z,14.80
2019-04-25T07:32:49.229Z,15.00
2019-04-25T07:35:36.218Z,15.10
2019-04-25T07:38:23.777Z,15.10
2019-04-25T07:41:14.073Z,15.40
2019-04-25T07:43:59.918Z,15.50
2019-04-25T07:46:47.177Z,15.70
2019-04-25T07:49:34.847Z,15.30
2019-04-25T07:52:23.365Z,15.10
2019-04-25T07:55:10.533Z,15.20
2019-04-25T07:57:58.068Z,15.30
2019-04-25T08:00:45.462Z,15.70
2019-04-25T08:03:34.391Z,15.90
2019-04-25T08:06:22.688Z,15.90
2019-04-25T08:09:12.193Z,15.80
2019-04-25T08:12:00.105Z,16.00
2019-04-25T08:14:49.377Z,16.10
2019-04-25T08:17:54.988Z,16.30
2019-04-25T08:20:43.426Z,16.50
2019-04-25T08:23:33.906Z,16.70
2019-04-25T08:26:20.478Z,16.90
2019-04-25T08:29:08.568Z,17.00
2019-04-25T08:31:56.263Z,17.20
2019-04-25T08:34:44.712Z,17.40
2019-04-25T08:37:34.128Z,17.60
2019-04-25T08:40:23.677Z,17.60
2019-04-25T08:43:11.830Z,17.70
2019-04-25T08:45:59.362Z,18.00
2019-04-25T08:49:06.201Z,18.30
2019-04-25T08:51:55.804Z,18.60
2019-04-25T08:54:47.814Z,18.70
2019-04-25T08:57:55.563Z,19.00
2019-04-25T09:00:58.278Z,19.80
2019-04-25T09:03:47.482Z,20.70
2019-04-25T09:06:36.494Z,21.50
2019-04-25T09:09:25.409Z,22.20
2019-04-25T09:12:14.061Z,23.00
2019-04-25T09:15:01.809Z,22.90
2019-04-25T09:17:49.444Z,23.00
2019-04-25T09:20:40.893Z,23.40
2019-04-25T09:23:28.114Z,23.40
2019-04-25T09:26:16.126Z,23.70
2019-04-25T09:29:15.987Z,24.00
2019-04-25T09:31:53.759Z,24.40
2019-04-25T09:34:40.864Z,24.40
2019-04-25T09:37:28.427Z,24.40
2019-04-25T09:40:17.069Z,24.40
2019-04-25T09:43:04.809Z,24.30
2019-04-25T09:46:06.065Z,24.40
2019-04-25T09:48:54.929Z,24.90
2019-04-25T09:51:47.026Z,25.10
2019-04-25T09:54:39.843Z,25.60
2019-04-25T09:57:28.866Z,25.60
2019-04-25T10:00:17.909Z,25.80
2019-04-25T10:03:05.933Z,26.10
2019-04-25T10:05:53.659Z,26.50
2019-04-25T10:08:41.114Z,27.20
2019-04-25T10:11:28.729Z,27.20
2019-04-25T10:14:33.909Z,27.10
2019-04-25T10:17:20.945Z,27.60
2019-04-25T10:20:08.242Z,27.90
2019-04-25T10:22:58.603Z,28.00
2019-04-25T10:25:46.594Z,27.70
2019-04-25T10:28:34.366Z,27.80
2019-04-25T10:31:23.646Z,27.90
2019-04-25T10:34:10.933Z,28.10
2019-04-25T10:36:58.350Z,28.10
2019-04-25T10:39:46.018Z,28.40
2019-04-25T10:42:34.295Z,28.40
2019-04-25T10:45:24.965Z,28.60
2019-04-25T10:48:11.081Z,29.10
2019-04-25T10:50:58.518Z,28.90
2019-04-25T10:53:47.039Z,29.00
2019-04-25T10:56:34.738Z,29.30
2019-04-25T10:59:23.594Z,29.30
2019-04-25T11:02:11.358Z,29.60
2019-04-25T11:05:03.400Z,29.70
2019-04-25T11:07:50.943Z,29.60
2019-04-25T11:10:38.322Z,29.30
2019-04-25T11:13:25.876Z,29.80
2019-04-25T11:16:14.969Z,29.60
2019-04-25T11:19:02.507Z,29.60
2019-04-25T11:21:49.797Z,30.20
2019-04-25T11:24:36.895Z,29.90
2019-04-25T11:27:24.876Z,30.00
2019-04-25T11:30:13.911Z,30.60
2019-04-25T11:33:01.140Z,30.70
2019-04-25T11:35:49.036Z,30.10
2019-04-25T11:38:41.232Z,30.90
2019-04-25T11:41:28.850Z,30.70
2019-04-25T11:44:16.492Z,30.70
2019-04-25T11:47:06.921Z,31.40
2019-04-25T11:49:54.639Z,31.60
2019-04-25T11:52:43.638Z,31.60
2019-04-25T11:55:31.056Z,31.50
2019-04-25T11:58:18.509Z,31.40
2019-04-25T12:01:07.577Z,31.80
2019-04-25T12:03:56.065Z,32.40
2019-04-25T12:06:47.049Z,31.70
2019-04-25T12:09:33.661Z,32.40
2019-04-25T12:12:21.284Z,32.20
2019-04-25T12:15:08.790Z,32.10
2019-04-25T12:17:57.539Z,31.50
2019-04-25T12:20:46.240Z,31.10
2019-04-25T12:23:33.930Z,31.10
2019-04-25T12:26:21.323Z,31.10
2019-04-25T12:29:08.522Z,31.40
2019-04-25T12:31:56.408Z,29.80
2019-04-25T12:34:44.898Z,30.70
2019-04-25T12:37:33.753Z,30.70
2019-04-25T12:40:21.442Z,28.90
2019-04-25T12:43:08.695Z,29.20
2019-04-25T12:45:58.303Z,29.50
2019-04-25T12:48:46.129Z,28.80
2019-04-25T12:51:33.624Z,29.00
2019-04-25T12:54:20.823Z,29.90
2019-04-25T12:57:09.526Z,30.10
2019-04-25T12:59:57.572Z,29.90
2019-04-25T13:02:45.103Z,29.80
2019-04-25T13:05:34.162Z,29.40
2019-04-25T13:08:21.404Z,29.50
2019-04-25T13:11:10.511Z,29.50
2019-04-25T13:13:57.897Z,29.90
2019-04-25T13:16:46.851Z,29.90
2019-04-25T13:19:35.665Z,29.70
2019-04-25T13:22:24.078Z,29.40
2019-04-25T13:25:14.674Z,29.00
2019-04-25T13:28:06.718Z,28.60
2019-04-25T13:31:14.658Z,27.90
2019-04-25T13:34:05.907Z,27.90
2019-04-25T13:36:54.205Z,28.40
2019-04-25T13:39:41.849Z,28.90
2019-04-25T13:42:30.824Z,28.90
2019-04-25T13:45:18.237Z,29.30
2019-04-25T13:48:07.272Z,29.80
2019-04-25T13:50:54.577Z,29.80
2019-04-25T13:53:43.460Z,31.00
2019-04-25T13:56:31.202Z,31.70
2019-04-25T13:59:18.338Z,32.40
2019-04-25T14:02:07.058Z,32.50
2019-04-25T14:04:57.399Z,32.50
2019-04-25T14:07:44.774Z,31.80
2019-04-25T14:10:32.475Z,32.10
2019-04-25T14:13:22.515Z,31.50
2019-04-25T14:16:13.701Z,31.70
2019-04-25T14:19:19.042Z,31.40
2019-04-25T14:22:07.163Z,30.60
2019-04-25T14:24:54.761Z,29.60
2019-04-25T14:27:45.326Z,28.90
2019-04-25T14:30:35.955Z,29.90
2019-04-25T14:33:26.047Z,30.70
2019-04-25T14:36:13.245Z,30.70
2019-04-25T14:39:00.657Z,30.10
2019-04-25T14:41:48.353Z,30.00
2019-04-25T14:44:35.630Z,30.40
2019-04-25T14:47:23.325Z,30.30
2019-04-25T14:50:14.273Z,29.90
2019-04-25T14:53:01.568Z,30.30
2019-04-25T14:55:50.950Z,30.40
2019-04-25T14:58:39.929Z,30.10
2019-04-25T15:01:28.061Z,30.00
2019-04-25T15:04:15.562Z,29.10
2019-04-25T15:07:02.881Z,28.90
2019-04-25T15:09:50.059Z,29.20
2019-04-25T15:12:37.387Z,29.30
2019-04-25T15:15:24.713Z,28.40
2019-04-25T15:18:12.390Z,27.60
2019-04-25T15:21:02.414Z,27.30
2019-04-25T15:23:59.674Z,27.00
2019-04-25T15:26:40.332Z,26.50
2019-04-25T15:29:28.074Z,26.00
2019-04-25T15:32:16.872Z,25.90
2019-04-25T15:35:07.829Z,25.70
2019-04-25T15:37:59.845Z,25.70
2019-04-25T15:41:06.588Z,25.40
2019-04-25T15:44:07.902Z,25.50
2019-04-25T15:46:57.242Z,25.30
2019-04-25T15:49:44.799Z,24.90
2019-04-25T15:52:32.158Z,24.80
2019-04-25T15:55:19.785Z,24.60
2019-04-25T15:58:07.341Z,24.60
2019-04-25T16:00:55.391Z,24.30
2019-04-25T16:03:43.249Z,24.40
2019-04-25T16:06:31.930Z,24.30
2019-04-25T16:09:19.492Z,24.20
2019-04-25T16:12:08.796Z,24.10
2019-04-25T16:14:56.509Z,24.10
2019-04-25T16:17:43.975Z,24.10
2019-04-25T16:20:31.953Z,24.10
2019-04-25T16:23:19.689Z,24.00
2019-04-25T16:26:07.253Z,23.80
2019-04-25T16:28:54.801Z,23.80
2019-04-25T16:31:42.559Z,23.70
2019-04-25T16:34:30.776Z,23.70
2019-04-25T16:37:18.285Z,23.60
2019-04-25T16:40:05.958Z,23.60
2019-04-25T16:42:53.685Z,23.70
2019-04-25T16:45:41.609Z,23.60
2019-04-25T16:48:29.906Z,23.30
2019-04-25T16:51:18.025Z,23.20
2019-04-25T16:54:05.589Z,23.30
2019-04-25T16:56:53.307Z,23.40
2019-04-25T16:59:41.984Z,23.50
2019-04-25T17:02:35.579Z,23.50
2019-04-25T17:05:21.028Z,23.70
2019-04-25T17:08:09.270Z,23.90
2019-04-25T17:10:57.345Z,24.00
2019-04-25T17:13:46.565Z,23.90
2019-04-25T17:16:42.364Z,23.50
2019-04-25T17:19:37.447Z,23.40
2019-04-25T17:22:25.488Z,23.30
2019-04-25T17:25:13.180Z,23.00
2019-04-25T17:28:01.161Z,23.00
2019-04-25T17:30:50.421Z,23.20
2019-04-25T17:33:54.865Z,23.10
2019-04-25T17:36:43.875Z,23.10
2019-04-25T17:39:37.985Z,23.50
2019-04-25T17:42:25.670Z,23.40
2019-04-25T17:45:15.060Z,23.30
2019-04-25T17:48:02.821Z,22.70
2019-04-25T17:50:52.150Z,22.40
2019-04-25T17:53:43.312Z,22.40
2019-04-25T17:56:30.872Z,22.20
2019-04-25T17:59:18.801Z,22.10
2019-04-25T18:02:06.556Z,22.00
2019-04-25T18:04:54.222Z,21.80
2019-04-25T18:07:41.793Z,21.60
2019-04-25T18:10:30.158Z,21.40
2019-04-25T18:13:18.072Z,21.50
2019-04-25T18:16:07.720Z,21.50
2019-04-25T18:19:09.039Z,21.40
2019-04-25T18:21:58.296Z,21.30
2019-04-25T18:24:56.533Z,21.20
2019-04-25T18:27:47.360Z,21.20
2019-04-25T18:30:35.739Z,21.10
2019-04-25T18:33:25.306Z,20.80
2019-04-25T18:36:20.414Z,20.70
2019-04-25T18:39:10.048Z,20.50
2019-04-25T18:42:01.974Z,20.10
2019-04-25T18:44:50.002Z,20.20
2019-04-25T18:47:38.245Z,20.10
2019-04-25T18:50:27.505Z,19.80
2019-04-25T18:53:37.974Z,19.70
2019-04-25T18:56:27.849Z,19.60
2019-04-25T18:59:17.194Z,19.50
2019-04-25T19:02:22.669Z,19.30
2019-04-25T19:05:18.032Z,18.50
2019-04-25T19:08:06.167Z,17.60
2019-04-25T19:10:56.960Z,17.70
2019-04-25T19:13:47.387Z,17.40
2019-04-25T19:16:35.092Z,17.40
2019-04-25T19:19:22.721Z,17.20
2019-04-25T19:22:10.419Z,17.10
2019-04-25T19:24:58.038Z,16.90
2019-04-25T19:27:46.577Z,17.00
2019-04-25T19:30:34.596Z,16.60
2019-04-25T19:33:34.913Z,16.60
2019-04-25T19:36:13.434Z,16.20
2019-04-25T19:39:01.051Z,16.30
2019-04-25T19:42:06.698Z,16.10
2019-04-25T19:44:55.930Z,15.90
2019-04-25T19:47:43.733Z,15.70
2019-04-25T19:50:32.862Z,15.70
2019-04-25T19:53:20.252Z,15.50
2019-04-25T19:56:08.168Z,14.80
2019-04-25T19:58:57.789Z,15.00
2019-04-25T20:01:45.884Z,14.90
2019-04-25T20:04:41.821Z,14.80
2019-04-25T20:07:31.553Z,14.70
2019-04-25T20:10:26.049Z,14.40
2019-04-25T20:13:13.310Z,14.30
2019-04-25T20:16:00.464Z,14.20
2019-04-25T20:18:48.139Z,14.30
2019-04-25T20:21:34.981Z,14.60
2019-04-25T20:24:21.917Z,14.90
2019-04-25T20:27:08.939Z,14.70
2019-04-25T20:29:56.312Z,14.40
2019-04-25T20:32:44.747Z,14.20
2019-04-25T20:35:32.950Z,14.00
2019-04-25T20:38:20.149Z,14.10
2019-04-25T20:41:07.262Z,14.40
2019-04-25T20:43:54.952Z,14.00
2019-04-25T20:46:42.393Z,14.10
2019-04-25T20:49:29.228Z,14.20
2019-04-25T20:52:16.396Z,13.90
2019-04-25T20:55:04.409Z,13.60
2019-04-25T20:57:51.457Z,13.50
2019-04-25T21:00:41.853Z,13.60
2019-04-25T21:03:29.175Z,13.30
2019-04-25T21:06:20.629Z,13.10
2019-04-25T21:09:07.960Z,13.00
2019-04-25T21:11:55.722Z,12.60
2019-04-25T21:14:53.775Z,12.60
2019-04-25T21:17:42.320Z,12.50
2019-04-25T21:20:29.453Z,12.40
2019-04-25T21:23:16.555Z,12.20
2019-04-25T21:26:03.862Z,12.30
2019-04-25T21:28:52.039Z,12.40
2019-04-25T21:31:39.251Z,12.40
2019-04-25T21:34:28.132Z,12.50
2019-04-25T21:37:14.737Z,12.20
2019-04-25T21:40:06.481Z,12.60
2019-04-25T21:42:56.217Z,12.50
2019-04-25T21:45:43.739Z,12.40
2019-04-25T21:48:31.197Z,12.20
2019-04-25T21:51:34.151Z,12.40
2019-04-25T21:54:21.361Z,12.20
2019-04-25T21:57:08.585Z,12.40
2019-04-25T22:00:03.223Z,12.50
2019-04-25T22:02:44.786Z,12.40
2019-04-25T22:05:32.405Z,12.30
2019-04-25T22:08:19.834Z,12.60
2019-04-25T22:11:07.128Z,12.10
2019-04-25T22:13:54.866Z,12.20
2019-04-25T22:16:42.764Z,12.20
2019-04-25T22:19:30.394Z,12.50
2019-04-25T22:22:17.432Z,12.70
2019-04-25T22:25:06.733Z,12.70
2019-04-25T22:27:54.430Z,12.50
2019-04-25T22:30:43.641Z,12.30
2019-04-25T22:33:34.973Z,12.70
2019-04-25T22:36:23.774Z,12.60
2019-04-25T22:39:11.509Z,12.80
2019-04-25T22:41:59.565Z,12.80
2019-04-25T22:44:48.136Z,12.90
2019-04-25T22:47:35.419Z,12.90
2019-04-25T22:50:22.319Z,12.60
2019-04-25T22:53:21.487Z,12.40
2019-04-25T22:55:58.656Z,12.40
2019-04-25T22:58:45.949Z,12.30
2019-04-25T23:01:41.070Z,11.90
2019-04-25T23:04:29.785Z,11.70
2019-04-25T23:07:17.957Z,11.90
2019-04-25T23:10:06.824Z,12.40
2019-04-25T23:12:54.050Z,12.60
2019-04-25T23:15:41.430Z,12.60
2019-04-25T23:18:28.982Z,12.50
2019-04-25T23:21:16.404Z,12.30
2019-04-25T23:24:03.632Z,12.20
2019-04-25T23:27:10.028Z,12.20
2019-04-25T23:29:57.316Z,12.20
2019-04-25T23:32:45.006Z,12.50
2019-04-25T23:35:34.001Z,12.60
2019-04-25T23:38:21.069Z,11.90
2019-04-25T23:41:08.113Z,12.20
2019-04-25T23:43:55.301Z,11.80
2019-04-25T23:46:42.995Z,11.90
2019-04-25T23:49:30.207Z,12.10
2019-04-25T23:52:17.970Z,11.90
2019-04-25T23:55:05.521Z,11.90
2019-04-25T23:57:52.297Z,12.20
